sensor_id;sensor_type;location;lat;lon;timestamp;pressure;altitude;pressure_sealevel;temperature;humidity
36192;BME280;22233;42.708;23.360;2023-03-09T00:01:40;94787.16;;;9.47;54.81
36192;BME280;22233;42.708;23.360;2023-03-09T00:04:06;94769.97;;;9.34;55.15
36192;BME280;22233;42.708;23.360;2023-03-09T00:06:31;94781.06;;;9.67;54.62
36192;BME280;22233;42.708;23.360;2023-03-09T00:08:57;94795.28;;;9.64;54.04
36192;BME280;22233;42.708;23.360;2023-03-09T00:11:23;94775.34;;;9.60;54.04
36192;BME280;22233;42.708;23.360;2023-03-09T00:13:49;94783.16;;;9.53;54.05
36192;BME280;22233;42.708;23.360;2023-03-09T00:16:23;94787.00;;;9.34;55.35
36192;BME280;22233;42.708;23.360;2023-03-09T00:18:49;94792.91;;;9.28;55.21
36192;BME280;22233;42.708;23.360;2023-03-09T00:21:18;94792.75;;;8.98;56.73
36192;BME280;22233;42.708;23.360;2023-03-09T00:24:14;94779.69;;;9.00;56.07
36192;BME280;22233;42.708;23.360;2023-03-09T00:26:42;94778.88;;;9.08;55.44
36192;BME280;22233;42.708;23.360;2023-03-09T00:29:10;94759.09;;;8.99;55.55
36192;BME280;22233;42.708;23.360;2023-03-09T00:31:36;94772.66;;;8.99;56.05
36192;BME280;22233;42.708;23.360;2023-03-09T00:34:02;94776.16;;;8.82;56.47
36192;BME280;22233;42.708;23.360;2023-03-09T00:36:28;94781.28;;;9.18;55.50
36192;BME280;22233;42.708;23.360;2023-03-09T00:38:55;94776.16;;;9.17;55.82
36192;BME280;22233;42.708;23.360;2023-03-09T00:41:22;94784.28;;;9.17;55.59
36192;BME280;22233;42.708;23.360;2023-03-09T00:43:48;94760.38;;;8.93;56.27
36192;BME280;22233;42.708;23.360;2023-03-09T00:46:15;94767.72;;;8.92;56.49
36192;BME280;22233;42.708;23.360;2023-03-09T00:48:41;94761.81;;;8.99;56.23
36192;BME280;22233;42.708;23.360;2023-03-09T00:51:07;94743.34;;;8.92;56.19
36192;BME280;22233;42.708;23.360;2023-03-09T00:53:33;94755.78;;;9.02;56.49
36192;BME280;22233;42.708;23.360;2023-03-09T00:56:03;94749.09;;;9.08;55.92
36192;BME280;22233;42.708;23.360;2023-03-09T00:58:29;94751.78;;;9.08;56.29
36192;BME280;22233;42.708;23.360;2023-03-09T01:00:55;94737.47;;;9.08;56.11
36192;BME280;22233;42.708;23.360;2023-03-09T01:03:20;94744.13;;;9.10;55.98
36192;BME280;22233;42.708;23.360;2023-03-09T01:05:46;94735.69;;;9.12;55.59
36192;BME280;22233;42.708;23.360;2023-03-09T01:08:11;94751.78;;;9.26;55.10
36192;BME280;22233;42.708;23.360;2023-03-09T01:10:38;94737.13;;;8.92;56.49
36192;BME280;22233;42.708;23.360;2023-03-09T01:13:03;94757.22;;;9.08;56.46
36192;BME280;22233;42.708;23.360;2023-03-09T01:15:29;94753.72;;;9.08;55.87
36192;BME280;22233;42.708;23.360;2023-03-09T01:17:54;94753.22;;;9.14;55.87
36192;BME280;22233;42.708;23.360;2023-03-09T01:20:19;94745.25;;;9.18;55.77
36192;BME280;22233;42.708;23.360;2023-03-09T01:22:45;94714.66;;;9.00;56.40
36192;BME280;22233;42.708;23.360;2023-03-09T01:25:10;94712.91;;;9.04;56.30
36192;BME280;22233;42.708;23.360;2023-03-09T01:27:36;94729.47;;;9.11;55.83
36192;BME280;22233;42.708;23.360;2023-03-09T01:30:01;94716.06;;;9.15;55.47
36192;BME280;22233;42.708;23.360;2023-03-09T01:32:27;94719.09;;;9.22;55.92
36192;BME280;22233;42.708;23.360;2023-03-09T01:34:52;94722.13;;;9.20;55.79
36192;BME280;22233;42.708;23.360;2023-03-09T01:37:18;94717.97;;;9.23;55.23
36192;BME280;22233;42.708;23.360;2023-03-09T01:39:44;94715.00;;;8.90;56.71
36192;BME280;22233;42.708;23.360;2023-03-09T01:42:10;94709.41;;;9.12;55.68
36192;BME280;22233;42.708;23.360;2023-03-09T01:44:35;94699.81;;;9.24;55.70
36192;BME280;22233;42.708;23.360;2023-03-09T01:47:04;94700.44;;;9.29;55.53
36192;BME280;22233;42.708;23.360;2023-03-09T01:49:43;94706.66;;;9.30;55.35
36192;BME280;22233;42.708;23.360;2023-03-09T01:52:18;94692.97;;;9.26;56.08
36192;BME280;22233;42.708;23.360;2023-03-09T01:55:04;94702.97;;;9.43;55.78
36192;BME280;22233;42.708;23.360;2023-03-09T02:00:05;94689.41;;;9.52;54.81
36192;BME280;22233;42.708;23.360;2023-03-09T02:02:33;94702.25;;;9.64;55.27
36192;BME280;22233;42.708;23.360;2023-03-09T02:05:02;94704.50;;;9.62;54.95
36192;BME280;22233;42.708;23.360;2023-03-09T02:07:31;94701.47;;;9.63;54.74
36192;BME280;22233;42.708;23.360;2023-03-09T02:10:09;94707.63;;;9.25;55.07
36192;BME280;22233;42.708;23.360;2023-03-09T02:12:38;94716.69;;;9.38;55.77
36192;BME280;22233;42.708;23.360;2023-03-09T02:15:04;94722.56;;;9.49;55.12
36192;BME280;22233;42.708;23.360;2023-03-09T02:17:30;94711.72;;;9.49;55.22
36192;BME280;22233;42.708;23.360;2023-03-09T02:22:21;94719.81;;;9.57;55.17
36192;BME280;22233;42.708;23.360;2023-03-09T02:24:59;94721.44;;;9.58;54.62
36192;BME280;22233;42.708;23.360;2023-03-09T02:27:29;94696.31;;;9.32;55.40
36192;BME280;22233;42.708;23.360;2023-03-09T02:29:55;94696.41;;;9.53;55.67
36192;BME280;22233;42.708;23.360;2023-03-09T02:32:21;94709.44;;;9.59;54.75
36192;BME280;22233;42.708;23.360;2023-03-09T02:34:47;94709.38;;;9.30;54.88
36192;BME280;22233;42.708;23.360;2023-03-09T02:39:58;94712.38;;;9.46;55.30
36192;BME280;22233;42.708;23.360;2023-03-09T02:42:26;94733.56;;;9.44;55.33
36192;BME280;22233;42.708;23.360;2023-03-09T02:44:53;94713.66;;;9.31;55.21
36192;BME280;22233;42.708;23.360;2023-03-09T02:47:21;94729.59;;;9.50;55.22
36192;BME280;22233;42.708;23.360;2023-03-09T02:49:46;94705.81;;;9.47;54.79
36192;BME280;22233;42.708;23.360;2023-03-09T02:52:12;94720.78;;;9.53;55.03
36192;BME280;22233;42.708;23.360;2023-03-09T02:54:38;94721.94;;;9.52;56.09
36192;BME280;22233;42.708;23.360;2023-03-09T02:57:04;94712.41;;;9.28;55.73
36192;BME280;22233;42.708;23.360;2023-03-09T02:59:29;94729.91;;;9.48;55.59
36192;BME280;22233;42.708;23.360;2023-03-09T03:01:55;94729.09;;;9.56;55.94
36192;BME280;22233;42.708;23.360;2023-03-09T03:04:20;94729.09;;;9.56;55.62
36192;BME280;22233;42.708;23.360;2023-03-09T03:06:45;94730.81;;;9.61;55.92
36192;BME280;22233;42.708;23.360;2023-03-09T03:09:11;94725.59;;;9.47;55.17
36192;BME280;22233;42.708;23.360;2023-03-09T03:11:36;94728.50;;;9.42;55.87
36192;BME280;22233;42.708;23.360;2023-03-09T03:14:02;94735.00;;;9.50;55.53
36192;BME280;22233;42.708;23.360;2023-03-09T03:16:27;94728.81;;;9.32;55.55
36192;BME280;22233;42.708;23.360;2023-03-09T03:18:52;94735.84;;;9.15;56.19
36192;BME280;22233;42.708;23.360;2023-03-09T03:21:18;94727.25;;;8.96;56.32
36192;BME280;22233;42.708;23.360;2023-03-09T03:23:44;94729.16;;;9.04;56.73
36192;BME280;22233;42.708;23.360;2023-03-09T03:26:10;94726.13;;;9.14;56.53
36192;BME280;22233;42.708;23.360;2023-03-09T03:28:36;94731.41;;;9.02;56.93
36192;BME280;22233;42.708;23.360;2023-03-09T03:31:02;94736.19;;;9.14;56.88
36192;BME280;22233;42.708;23.360;2023-03-09T03:33:28;94744.94;;;9.19;56.16
36192;BME280;22233;42.708;23.360;2023-03-09T03:35:54;94740.94;;;9.08;57.24
36192;BME280;22233;42.708;23.360;2023-03-09T03:38:20;94731.84;;;9.13;56.91
36192;BME280;22233;42.708;23.360;2023-03-09T03:40:45;94741.38;;;9.45;56.80
36192;BME280;22233;42.708;23.360;2023-03-09T03:43:11;94729.63;;;9.32;56.19
36192;BME280;22233;42.708;23.360;2023-03-09T03:45:36;94736.00;;;9.19;56.25
36192;BME280;22233;42.708;23.360;2023-03-09T03:48:02;94732.03;;;9.16;56.58
36192;BME280;22233;42.708;23.360;2023-03-09T03:50:27;94738.72;;;9.19;56.29
36192;BME280;22233;42.708;23.360;2023-03-09T03:52:52;94751.13;;;9.11;56.47
36192;BME280;22233;42.708;23.360;2023-03-09T03:55:18;94759.91;;;8.91;55.39
36192;BME280;22233;42.708;23.360;2023-03-09T03:57:43;94747.63;;;8.85;55.54
36192;BME280;22233;42.708;23.360;2023-03-09T04:00:09;94735.81;;;8.54;56.03
36192;BME280;22233;42.708;23.360;2023-03-09T04:02:36;94747.88;;;8.39;56.97
36192;BME280;22233;42.708;23.360;2023-03-09T04:05:01;94709.44;;;8.11;56.97
36192;BME280;22233;42.708;23.360;2023-03-09T04:07:27;94748.66;;;8.40;56.22
36192;BME280;22233;42.708;23.360;2023-03-09T04:09:53;94731.44;;;8.27;57.34
36192;BME280;22233;42.708;23.360;2023-03-09T04:12:18;94738.53;;;8.46;56.46
36192;BME280;22233;42.708;23.360;2023-03-09T04:14:43;94730.41;;;8.46;57.02
36192;BME280;22233;42.708;23.360;2023-03-09T04:17:09;94702.47;;;8.19;57.11
36192;BME280;22233;42.708;23.360;2023-03-09T04:19:35;94723.47;;;8.31;56.83
36192;BME280;22233;42.708;23.360;2023-03-09T04:22:00;94737.25;;;8.43;57.22
36192;BME280;22233;42.708;23.360;2023-03-09T04:24:26;94727.31;;;8.30;57.41
36192;BME280;22233;42.708;23.360;2023-03-09T04:26:51;94734.06;;;8.41;57.29
36192;BME280;22233;42.708;23.360;2023-03-09T04:29:16;94725.31;;;8.53;56.74
36192;BME280;22233;42.708;23.360;2023-03-09T04:31:42;94723.94;;;8.24;57.30
36192;BME280;22233;42.708;23.360;2023-03-09T04:34:10;94713.91;;;8.25;57.37
36192;BME280;22233;42.708;23.360;2023-03-09T04:36:35;94723.47;;;8.31;56.61
36192;BME280;22233;42.708;23.360;2023-03-09T04:39:01;94716.19;;;8.40;56.77
36192;BME280;22233;42.708;23.360;2023-03-09T04:41:26;94710.22;;;8.12;57.75
36192;BME280;22233;42.708;23.360;2023-03-09T04:43:51;94721.25;;;8.24;57.26
36192;BME280;22233;42.708;23.360;2023-03-09T04:46:17;94705.78;;;8.07;57.41
36192;BME280;22233;42.708;23.360;2023-03-09T04:48:42;94698.78;;;8.15;57.57
36192;BME280;22233;42.708;23.360;2023-03-09T04:51:08;94705.00;;;8.24;57.19
36192;BME280;22233;42.708;23.360;2023-03-09T04:53:33;94714.09;;;8.28;57.54
36192;BME280;22233;42.708;23.360;2023-03-09T04:55:58;94701.75;;;8.05;57.96
36192;BME280;22233;42.708;23.360;2023-03-09T04:58:24;94719.31;;;8.16;57.88
36192;BME280;22233;42.708;23.360;2023-03-09T05:00:49;94700.78;;;7.92;58.30
36192;BME280;22233;42.708;23.360;2023-03-09T05:03:15;94716.41;;;7.64;58.94
36192;BME280;22233;42.708;23.360;2023-03-09T05:05:40;94700.88;;;7.78;58.56
36192;BME280;22233;42.708;23.360;2023-03-09T05:08:05;94717.28;;;7.82;58.31
36192;BME280;22233;42.708;23.360;2023-03-09T05:10:31;94718.34;;;7.72;58.41
36192;BME280;22233;42.708;23.360;2023-03-09T05:12:56;94722.50;;;7.69;58.93
36192;BME280;22233;42.708;23.360;2023-03-09T05:15:21;94702.50;;;7.79;59.13
36192;BME280;22233;42.708;23.360;2023-03-09T05:17:47;94707.16;;;7.96;58.34
36192;BME280;22233;42.708;23.360;2023-03-09T05:20:12;94716.97;;;7.83;58.43
36192;BME280;22233;42.708;23.360;2023-03-09T05:22:39;94687.53;;;7.73;58.50
36192;BME280;22233;42.708;23.360;2023-03-09T05:25:05;94712.53;;;7.47;59.88
36192;BME280;22233;42.708;23.360;2023-03-09T05:27:32;94700.78;;;7.20;60.10
36192;BME280;22233;42.708;23.360;2023-03-09T05:29:57;94700.75;;;7.43;59.70
36192;BME280;22233;42.708;23.360;2023-03-09T05:32:23;94710.44;;;7.44;59.27
36192;BME280;22233;42.708;23.360;2023-03-09T05:34:48;94729.13;;;7.63;59.18
36192;BME280;22233;42.708;23.360;2023-03-09T05:37:13;94717.97;;;7.56;59.21
36192;BME280;22233;42.708;23.360;2023-03-09T05:39:39;94738.03;;;7.64;59.67
36192;BME280;22233;42.708;23.360;2023-03-09T05:42:04;94741.72;;;7.68;59.45
36192;BME280;22233;42.708;23.360;2023-03-09T05:44:31;94740.66;;;7.77;58.96
36192;BME280;22233;42.708;23.360;2023-03-09T05:46:56;94746.56;;;7.88;58.40
36192;BME280;22233;42.708;23.360;2023-03-09T05:49:23;94738.44;;;7.79;59.18
36192;BME280;22233;42.708;23.360;2023-03-09T05:51:48;94727.09;;;7.69;59.46
36192;BME280;22233;42.708;23.360;2023-03-09T05:54:14;94737.66;;;7.56;59.89
36192;BME280;22233;42.708;23.360;2023-03-09T05:56:42;94747.44;;;7.66;59.85
36192;BME280;22233;42.708;23.360;2023-03-09T05:59:07;94737.00;;;7.82;59.43
36192;BME280;22233;42.708;23.360;2023-03-09T06:01:33;94750.78;;;8.03;59.57
36192;BME280;22233;42.708;23.360;2023-03-09T06:03:58;94753.16;;;8.05;59.43
36192;BME280;22233;42.708;23.360;2023-03-09T06:06:24;94750.78;;;8.03;59.46
36192;BME280;22233;42.708;23.360;2023-03-09T06:08:49;94757.81;;;8.13;59.07
36192;BME280;22233;42.708;23.360;2023-03-09T06:11:15;94746.16;;;7.95;59.17
36192;BME280;22233;42.708;23.360;2023-03-09T06:13:41;94751.16;;;8.19;59.22
36192;BME280;22233;42.708;23.360;2023-03-09T06:16:08;94754.78;;;8.63;60.40
36192;BME280;22233;42.708;23.360;2023-03-09T06:18:33;94754.97;;;8.93;57.66
36192;BME280;22233;42.708;23.360;2023-03-09T06:21:02;94759.91;;;9.17;56.71
36192;BME280;22233;42.708;23.360;2023-03-09T06:23:30;94756.88;;;9.01;56.70
36192;BME280;22233;42.708;23.360;2023-03-09T06:25:55;94761.22;;;8.93;57.07
36192;BME280;22233;42.708;23.360;2023-03-09T06:28:21;94766.06;;;8.56;58.05
36192;BME280;22233;42.708;23.360;2023-03-09T06:30:47;94742.19;;;8.50;58.17
36192;BME280;22233;42.708;23.360;2023-03-09T06:33:12;94763.41;;;8.74;58.00
36192;BME280;22233;42.708;23.360;2023-03-09T06:35:37;94742.41;;;9.06;56.58
36192;BME280;22233;42.708;23.360;2023-03-09T06:38:04;94744.47;;;9.00;57.03
36192;BME280;22233;42.708;23.360;2023-03-09T06:40:30;94740.31;;;9.11;56.88
36192;BME280;22233;42.708;23.360;2023-03-09T06:42:55;94754.00;;;9.41;56.51
36192;BME280;22233;42.708;23.360;2023-03-09T06:45:21;94743.78;;;9.29;56.09
36192;BME280;22233;42.708;23.360;2023-03-09T06:47:46;94759.69;;;9.66;55.42
36192;BME280;22233;42.708;23.360;2023-03-09T06:50:12;94750.78;;;9.56;56.00
36192;BME280;22233;42.708;23.360;2023-03-09T06:52:38;94740.13;;;9.98;55.25
36192;BME280;22233;42.708;23.360;2023-03-09T06:55:04;94725.88;;;9.63;55.54
36192;BME280;22233;42.708;23.360;2023-03-09T06:57:30;94723.66;;;9.56;56.25
36192;BME280;22233;42.708;23.360;2023-03-09T06:59:55;94736.06;;;9.75;55.94
36192;BME280;22233;42.708;23.360;2023-03-09T07:02:20;94715.91;;;9.85;55.23
36192;BME280;22233;42.708;23.360;2023-03-09T07:04:46;94724.78;;;10.03;55.27
36192;BME280;22233;42.708;23.360;2023-03-09T07:07:11;94722.09;;;9.94;55.85
36192;BME280;22233;42.708;23.360;2023-03-09T07:09:38;94723.25;;;10.23;54.49
36192;BME280;22233;42.708;23.360;2023-03-09T07:12:04;94725.78;;;9.98;55.02
36192;BME280;22233;42.708;23.360;2023-03-09T07:14:29;94736.28;;;10.38;53.94
36192;BME280;22233;42.708;23.360;2023-03-09T07:16:56;94730.16;;;10.50;53.74
36192;BME280;22233;42.708;23.360;2023-03-09T07:19:22;94720.44;;;10.49;54.09
36192;BME280;22233;42.708;23.360;2023-03-09T07:21:48;94731.50;;;10.65;54.22
36192;BME280;22233;42.708;23.360;2023-03-09T07:24:14;94722.16;;;10.74;53.02
36192;BME280;22233;42.708;23.360;2023-03-09T07:26:41;94736.94;;;10.86;53.47
36192;BME280;22233;42.708;23.360;2023-03-09T07:29:07;94742.91;;;11.00;53.72
36192;BME280;22233;42.708;23.360;2023-03-09T07:31:32;94707.34;;;10.93;52.43
36192;BME280;22233;42.708;23.360;2023-03-09T07:33:58;94744.81;;;11.20;52.60
36192;BME280;22233;42.708;23.360;2023-03-09T07:36:25;94724.44;;;10.93;53.45
36192;BME280;22233;42.708;23.360;2023-03-09T07:38:51;94747.22;;;11.22;53.29
36192;BME280;22233;42.708;23.360;2023-03-09T07:41:17;94743.44;;;11.14;52.95
36192;BME280;22233;42.708;23.360;2023-03-09T07:43:43;94754.78;;;11.16;52.30
36192;BME280;22233;42.708;23.360;2023-03-09T07:46:10;94736.66;;;11.20;51.86
36192;BME280;22233;42.708;23.360;2023-03-09T07:48:37;94729.56;;;11.28;51.84
36192;BME280;22233;42.708;23.360;2023-03-09T07:51:06;94744.53;;;11.55;51.65
36192;BME280;22233;42.708;23.360;2023-03-09T07:53:33;94744.56;;;11.68;51.48
36192;BME280;22233;42.708;23.360;2023-03-09T07:55:59;94731.88;;;11.72;51.54
36192;BME280;22233;42.708;23.360;2023-03-09T07:58:33;94741.59;;;11.94;50.29
36192;BME280;22233;42.708;23.360;2023-03-09T08:00:59;94742.84;;;12.09;50.55
36192;BME280;22233;42.708;23.360;2023-03-09T08:03:25;94714.25;;;12.03;50.05
36192;BME280;22233;42.708;23.360;2023-03-09T08:05:51;94740.13;;;12.33;49.88
36192;BME280;22233;42.708;23.360;2023-03-09T08:08:29;94736.06;;;12.39;50.14
36192;BME280;22233;42.708;23.360;2023-03-09T08:10:56;94746.06;;;12.48;50.40
36192;BME280;22233;42.708;23.360;2023-03-09T08:13:22;94735.38;;;12.55;49.74
36192;BME280;22233;42.708;23.360;2023-03-09T08:15:48;94746.03;;;12.72;50.33
36192;BME280;22233;42.708;23.360;2023-03-09T08:18:14;94730.59;;;12.76;50.24
36192;BME280;22233;42.708;23.360;2023-03-09T08:20:40;94744.97;;;12.89;49.42
36192;BME280;22233;42.708;23.360;2023-03-09T08:23:06;94730.41;;;12.97;49.76
36192;BME280;22233;42.708;23.360;2023-03-09T08:25:32;94736.28;;;13.12;49.33
36192;BME280;22233;42.708;23.360;2023-03-09T08:27:58;94733.50;;;12.96;48.84
36192;BME280;22233;42.708;23.360;2023-03-09T08:30:24;94722.19;;;13.10;49.85
36192;BME280;22233;42.708;23.360;2023-03-09T08:32:51;94715.47;;;13.19;48.96
36192;BME280;22233;42.708;23.360;2023-03-09T08:35:18;94720.91;;;13.32;48.70
36192;BME280;22233;42.708;23.360;2023-03-09T08:37:44;94720.44;;;13.58;48.64
36192;BME280;22233;42.708;23.360;2023-03-09T08:40:11;94715.00;;;13.58;49.02
36192;BME280;22233;42.708;23.360;2023-03-09T08:42:36;94715.53;;;13.64;48.62
36192;BME280;22233;42.708;23.360;2023-03-09T08:45:03;94716.06;;;13.69;47.61
36192;BME280;22233;42.708;23.360;2023-03-09T08:47:29;94710.53;;;13.82;48.02
36192;BME280;22233;42.708;23.360;2023-03-09T08:49:55;94707.47;;;13.83;48.53
36192;BME280;22233;42.708;23.360;2023-03-09T08:52:20;94709.31;;;13.79;47.70
36192;BME280;22233;42.708;23.360;2023-03-09T08:54:46;94715.16;;;14.09;47.58
36192;BME280;22233;42.708;23.360;2023-03-09T08:57:12;94695.69;;;14.11;47.28
36192;BME280;22233;42.708;23.360;2023-03-09T08:59:37;94699.88;;;14.24;47.05
36192;BME280;22233;42.708;23.360;2023-03-09T09:02:03;94697.03;;;14.52;46.69
36192;BME280;22233;42.708;23.360;2023-03-09T09:04:29;94684.63;;;14.55;47.08
36192;BME280;22233;42.708;23.360;2023-03-09T09:06:54;94699.78;;;14.52;47.64
36192;BME280;22233;42.708;23.360;2023-03-09T09:09:20;94680.28;;;14.54;47.33
36192;BME280;22233;42.708;23.360;2023-03-09T09:11:46;94688.13;;;14.71;46.50
36192;BME280;22233;42.708;23.360;2023-03-09T09:14:11;94680.19;;;14.66;46.66
36192;BME280;22233;42.708;23.360;2023-03-09T09:16:37;94671.09;;;14.78;46.64
36192;BME280;22233;42.708;23.360;2023-03-09T09:19:02;94671.13;;;14.62;45.93
36192;BME280;22233;42.708;23.360;2023-03-09T09:21:28;94657.84;;;14.80;46.12
36192;BME280;22233;42.708;23.360;2023-03-09T09:23:54;94665.41;;;14.67;46.29
36192;BME280;22233;42.708;23.360;2023-03-09T09:26:20;94661.16;;;14.54;46.74
36192;BME280;22233;42.708;23.360;2023-03-09T09:28:45;94646.69;;;14.69;46.75
36192;BME280;22233;42.708;23.360;2023-03-09T09:31:16;94656.34;;;14.83;45.98
36192;BME280;22233;42.708;23.360;2023-03-09T09:33:42;94645.34;;;14.98;45.72
36192;BME280;22233;42.708;23.360;2023-03-09T09:36:12;94647.03;;;15.03;45.65
36192;BME280;22233;42.708;23.360;2023-03-09T09:38:38;94652.91;;;14.86;45.95
36192;BME280;22233;42.708;23.360;2023-03-09T09:43:41;94630.81;;;15.33;44.98
36192;BME280;22233;42.708;23.360;2023-03-09T09:46:11;94645.59;;;15.52;44.57
36192;BME280;22233;42.708;23.360;2023-03-09T09:48:40;94633.19;;;15.58;44.39
36192;BME280;22233;42.708;23.360;2023-03-09T09:56:58;94629.34;;;15.82;43.75
36192;BME280;22233;42.708;23.360;2023-03-09T09:59:33;94609.16;;;15.71;44.42
36192;BME280;22233;42.708;23.360;2023-03-09T10:04:45;94620.97;;;16.21;42.88
36192;BME280;22233;42.708;23.360;2023-03-09T10:07:17;94614.00;;;16.01;43.79
36192;BME280;22233;42.708;23.360;2023-03-09T10:09:46;94611.78;;;16.36;42.75
36192;BME280;22233;42.708;23.360;2023-03-09T10:12:15;94605.53;;;16.36;42.39
36192;BME280;22233;42.708;23.360;2023-03-09T10:14:47;94588.16;;;16.55;42.85
36192;BME280;22233;42.708;23.360;2023-03-09T10:17:21;94588.88;;;16.78;42.24
36192;BME280;22233;42.708;23.360;2023-03-09T10:19:48;94579.38;;;16.72;42.08
36192;BME280;22233;42.708;23.360;2023-03-09T10:24:49;94568.16;;;16.81;41.89
36192;BME280;22233;42.708;23.360;2023-03-09T10:27:41;94568.03;;;17.04;41.48
36192;BME280;22233;42.708;23.360;2023-03-09T10:32:56;94560.25;;;17.10;41.46
36192;BME280;22233;42.708;23.360;2023-03-09T10:38:03;94546.84;;;17.42;40.62
36192;BME280;22233;42.708;23.360;2023-03-09T10:40:34;94553.69;;;17.59;40.41
36192;BME280;22233;42.708;23.360;2023-03-09T10:43:04;94548.69;;;17.72;40.94
36192;BME280;22233;42.708;23.360;2023-03-09T10:45:36;94549.91;;;17.78;40.21
36192;BME280;22233;42.708;23.360;2023-03-09T10:48:06;94542.09;;;17.80;40.50
36192;BME280;22233;42.708;23.360;2023-03-09T10:50:32;94543.09;;;18.06;39.73
36192;BME280;22233;42.708;23.360;2023-03-09T10:55:53;94520.00;;;18.14;40.39
36192;BME280;22233;42.708;23.360;2023-03-09T10:58:21;94516.16;;;18.33;39.13
36192;BME280;22233;42.708;23.360;2023-03-09T11:06:28;94488.19;;;19.15;37.79
36192;BME280;22233;42.708;23.360;2023-03-09T11:09:51;94493.28;;;18.91;38.23
36192;BME280;22233;42.708;23.360;2023-03-09T11:11:51;94478.72;;;18.84;38.46
36192;BME280;22233;42.708;23.360;2023-03-09T11:14:27;94490.44;;;18.73;38.18
36192;BME280;22233;42.708;23.360;2023-03-09T11:16:58;94477.69;;;18.29;38.79
36192;BME280;22233;42.708;23.360;2023-03-09T11:19:25;94463.09;;;18.22;39.33
36192;BME280;22233;42.708;23.360;2023-03-09T11:24:39;94481.72;;;18.53;39.01
36192;BME280;22233;42.708;23.360;2023-03-09T11:27:26;94462.03;;;18.44;38.79
36192;BME280;22233;42.708;23.360;2023-03-09T11:30:04;94448.75;;;18.64;38.68
36192;BME280;22233;42.708;23.360;2023-03-09T11:32:32;94451.88;;;18.63;38.39
36192;BME280;22233;42.708;23.360;2023-03-09T11:34:59;94432.72;;;18.95;38.35
36192;BME280;22233;42.708;23.360;2023-03-09T11:40:19;94457.94;;;19.26;37.56
36192;BME280;22233;42.708;23.360;2023-03-09T11:45:28;94441.03;;;19.24;37.81
36192;BME280;22233;42.708;23.360;2023-03-09T11:47:58;94431.97;;;19.23;37.25
36192;BME280;22233;42.708;23.360;2023-03-09T11:50:28;94415.44;;;19.23;37.61
36192;BME280;22233;42.708;23.360;2023-03-09T11:53:03;94391.44;;;19.42;37.10
36192;BME280;22233;42.708;23.360;2023-03-09T11:55:35;94396.16;;;19.84;36.92
36192;BME280;22233;42.708;23.360;2023-03-09T11:58:05;94402.41;;;20.06;45.96
36192;BME280;22233;42.708;23.360;2023-03-09T12:00:37;94393.13;;;20.67;38.72
36192;BME280;22233;42.708;23.360;2023-03-09T12:03:12;94379.72;;;20.58;36.27
36192;BME280;22233;42.708;23.360;2023-03-09T12:05:46;94367.09;;;20.64;36.04
36192;BME280;22233;42.708;23.360;2023-03-09T12:08:36;94374.66;;;21.16;35.55
36192;BME280;22233;42.708;23.360;2023-03-09T12:11:23;94368.00;;;21.10;34.85
36192;BME280;22233;42.708;23.360;2023-03-09T12:13:55;94371.47;;;21.21;34.98
36192;BME280;22233;42.708;23.360;2023-03-09T12:16:26;94382.03;;;20.70;34.95
36192;BME280;22233;42.708;23.360;2023-03-09T12:19:05;94364.97;;;20.90;34.67
36192;BME280;22233;42.708;23.360;2023-03-09T12:24:40;94369.53;;;20.48;35.40
36192;BME280;22233;42.708;23.360;2023-03-09T12:29:45;94354.44;;;19.79;36.35
36192;BME280;22233;42.708;23.360;2023-03-09T12:34:42;94360.75;;;19.58;36.94
36192;BME280;22233;42.708;23.360;2023-03-09T12:42:44;94356.84;;;19.48;36.83
36192;BME280;22233;42.708;23.360;2023-03-09T12:47:42;94346.63;;;19.41;36.76
36192;BME280;22233;42.708;23.360;2023-03-09T12:58:32;94332.34;;;19.89;36.68
36192;BME280;22233;42.708;23.360;2023-03-09T13:03:47;94316.59;;;19.93;36.38
36192;BME280;22233;42.708;23.360;2023-03-09T13:06:28;94354.69;;;20.20;36.14
36192;BME280;22233;42.708;23.360;2023-03-09T13:09:15;94315.19;;;20.41;35.57
36192;BME280;22233;42.708;23.360;2023-03-09T13:12:13;94312.22;;;20.81;35.23
36192;BME280;22233;42.708;23.360;2023-03-09T13:20:33;94316.25;;;21.97;33.14
36192;BME280;22233;42.708;23.360;2023-03-09T13:23:08;94313.09;;;21.61;33.64
36192;BME280;22233;42.708;23.360;2023-03-09T13:25:49;94313.75;;;21.34;33.79
36192;BME280;22233;42.708;23.360;2023-03-09T13:28:39;94307.88;;;21.70;33.29
36192;BME280;22233;42.708;23.360;2023-03-09T13:31:21;94315.09;;;21.94;33.14
36192;BME280;22233;42.708;23.360;2023-03-09T13:33:49;94296.38;;;22.09;32.72
36192;BME280;22233;42.708;23.360;2023-03-09T13:36:23;94307.88;;;22.39;32.52
36192;BME280;22233;42.708;23.360;2023-03-09T13:38:54;94295.38;;;22.27;32.65
36192;BME280;22233;42.708;23.360;2023-03-09T13:41:24;94305.78;;;22.46;32.77
36192;BME280;22233;42.708;23.360;2023-03-09T13:43:52;94302.94;;;22.19;33.02
36192;BME280;22233;42.708;23.360;2023-03-09T13:46:31;94306.31;;;22.38;32.47
36192;BME280;22233;42.708;23.360;2023-03-09T13:49:01;94310.63;;;22.39;32.15
36192;BME280;22233;42.708;23.360;2023-03-09T13:57:20;94312.50;;;21.39;34.01
36192;BME280;22233;42.708;23.360;2023-03-09T14:02:39;94308.84;;;21.07;34.42
36192;BME280;22233;42.708;23.360;2023-03-09T14:05:17;94296.56;;;21.12;34.40
36192;BME280;22233;42.708;23.360;2023-03-09T14:07:56;94306.63;;;20.88;34.74
36192;BME280;22233;42.708;23.360;2023-03-09T14:15:26;94312.53;;;20.27;35.46
36192;BME280;22233;42.708;23.360;2023-03-09T14:17:53;94306.34;;;19.98;36.05
36192;BME280;22233;42.708;23.360;2023-03-09T14:20:37;94313.22;;;20.42;35.42
36192;BME280;22233;42.708;23.360;2023-03-09T14:23:33;94313.97;;;20.46;35.20
36192;BME280;22233;42.708;23.360;2023-03-09T14:26:00;94312.44;;;20.41;35.41
36192;BME280;22233;42.708;23.360;2023-03-09T14:28:31;94320.63;;;20.52;35.36
36192;BME280;22233;42.708;23.360;2023-03-09T14:31:28;94329.06;;;20.27;35.24